sensor_id;sensor_type;location;lat;lon;timestamp;temperature;humidity
20498;DHT22;10407;53.238;10.448;2023-04-12T00:02:12;4.90;99.90
20498;DHT22;10407;53.238;10.448;2023-04-12T00:04:39;4.80;99.90
20498;DHT22;10407;53.238;10.448;2023-04-12T00:07:07;4.90;99.90
20498;DHT22;10407;53.238;10.448;2023-04-12T00:09:35;5.00;99.90
20498;DHT22;10407;53.238;10.448;2023-04-12T00:12:03;5.10;99.90
20498;DHT22;10407;53.238;10.448;2023-04-12T00:14:31;5.20;99.90
20498;DHT22;10407;53.238;10.448;2023-04-12T00:16:59;5.00;99.90
20498;DHT22;10407;53.238;10.448;2023-04-12T00:19:26;5.10;99.90
20498;DHT22;10407;53.238;10.448;2023-04-12T00:21:56;5.00;99.90
20498;DHT22;10407;53.238;10.448;2023-04-12T00:24:24;5.30;99.90
20498;DHT22;10407;53.238;10.448;2023-04-12T00:26:53;5.40;99.90
20498;DHT22;10407;53.238;10.448;2023-04-12T00:29:21;5.60;99.90
20498;DHT22;10407;53.238;10.448;2023-04-12T00:31:49;5.40;99.90
20498;DHT22;10407;53.238;10.448;2023-04-12T00:34:16;5.20;99.90
20498;DHT22;10407;53.238;10.448;2023-04-12T00:36:44;5.10;99.90
20498;DHT22;10407;53.238;10.448;2023-04-12T00:39:11;5.10;99.90
20498;DHT22;10407;53.238;10.448;2023-04-12T00:41:39;4.70;99.90
20498;DHT22;10407;53.238;10.448;2023-04-12T00:44:06;4.70;99.90
20498;DHT22;10407;53.238;10.448;2023-04-12T00:46:34;4.80;99.90
20498;DHT22;10407;53.238;10.448;2023-04-12T00:49:03;4.90;99.90
20498;DHT22;10407;53.238;10.448;2023-04-12T00:51:31;5.00;99.90
20498;DHT22;10407;53.238;10.448;2023-04-12T00:53:59;5.10;99.90
20498;DHT22;10407;53.238;10.448;2023-04-12T00:56:28;4.80;99.90
20498;DHT22;10407;53.238;10.448;2023-04-12T00:58:57;4.70;99.90
20498;DHT22;10407;53.238;10.448;2023-04-12T01:01:26;4.60;99.90
20498;DHT22;10407;53.238;10.448;2023-04-12T01:03:54;4.70;99.90
20498;DHT22;10407;53.238;10.448;2023-04-12T01:12:07;4.80;99.90
20498;DHT22;10407;53.238;10.448;2023-04-12T01:14:53;4.80;99.90
20498;DHT22;10407;53.238;10.448;2023-04-12T01:17:22;5.10;99.90
20498;DHT22;10407;53.238;10.448;2023-04-12T01:20:02;5.10;99.90
20498;DHT22;10407;53.238;10.448;2023-04-12T01:25:36;5.20;99.90
20498;DHT22;10407;53.238;10.448;2023-04-12T01:28:07;5.10;99.90
20498;DHT22;10407;53.238;10.448;2023-04-12T01:30:37;5.10;99.90
20498;DHT22;10407;53.238;10.448;2023-04-12T01:33:09;5.40;99.90
20498;DHT22;10407;53.238;10.448;2023-04-12T01:35:37;5.40;99.90
20498;DHT22;10407;53.238;10.448;2023-04-12T01:38:06;5.40;99.90
20498;DHT22;10407;53.238;10.448;2023-04-12T01:40:35;5.00;99.90
20498;DHT22;10407;53.238;10.448;2023-04-12T01:43:12;5.20;99.90
20498;DHT22;10407;53.238;10.448;2023-04-12T01:45:41;5.40;99.90
20498;DHT22;10407;53.238;10.448;2023-04-12T01:48:10;5.40;99.90
20498;DHT22;10407;53.238;10.448;2023-04-12T01:55:57;4.80;99.90
20498;DHT22;10407;53.238;10.448;2023-04-12T01:58:24;5.00;99.90
20498;DHT22;10407;53.238;10.448;2023-04-12T02:00:54;5.20;99.90
20498;DHT22;10407;53.238;10.448;2023-04-12T02:03:23;5.20;99.90
20498;DHT22;10407;53.238;10.448;2023-04-12T02:05:51;5.00;99.90
20498;DHT22;10407;53.238;10.448;2023-04-12T02:08:19;5.00;99.90
20498;DHT22;10407;53.238;10.448;2023-04-12T02:10:47;5.20;99.90
20498;DHT22;10407;53.238;10.448;2023-04-12T02:13:15;5.30;99.90
20498;DHT22;10407;53.238;10.448;2023-04-12T02:15:44;5.40;99.90
20498;DHT22;10407;53.238;10.448;2023-04-12T02:18:12;5.10;99.90
20498;DHT22;10407;53.238;10.448;2023-04-12T02:20:41;5.20;99.90
20498;DHT22;10407;53.238;10.448;2023-04-12T02:23:09;5.30;99.90
20498;DHT22;10407;53.238;10.448;2023-04-12T02:25:37;5.40;99.90
20498;DHT22;10407;53.238;10.448;2023-04-12T02:28:06;5.50;99.90
20498;DHT22;10407;53.238;10.448;2023-04-12T02:30:33;5.30;99.90
20498;DHT22;10407;53.238;10.448;2023-04-12T02:33:01;5.40;99.90
20498;DHT22;10407;53.238;10.448;2023-04-12T02:35:30;5.40;99.90
20498;DHT22;10407;53.238;10.448;2023-04-12T02:37:58;5.40;99.90
20498;DHT22;10407;53.238;10.448;2023-04-12T02:40:25;5.40;99.90
20498;DHT22;10407;53.238;10.448;2023-04-12T02:42:53;5.40;99.90
20498;DHT22;10407;53.238;10.448;2023-04-12T02:45:20;5.30;99.90
20498;DHT22;10407;53.238;10.448;2023-04-12T02:47:48;5.50;99.90
20498;DHT22;10407;53.238;10.448;2023-04-12T02:50:16;5.50;99.90
20498;DHT22;10407;53.238;10.448;2023-04-12T02:52:43;5.30;99.90
20498;DHT22;10407;53.238;10.448;2023-04-12T02:55:12;5.30;99.90
20498;DHT22;10407;53.238;10.448;2023-04-12T02:57:39;5.30;99.90
20498;DHT22;10407;53.238;10.448;2023-04-12T03:00:09;5.30;99.90
20498;DHT22;10407;53.238;10.448;2023-04-12T03:02:38;5.30;99.90
20498;DHT22;10407;53.238;10.448;2023-04-12T03:05:06;5.50;99.90
20498;DHT22;10407;53.238;10.448;2023-04-12T03:07:34;5.40;99.90
20498;DHT22;10407;53.238;10.448;2023-04-12T03:10:02;5.50;99.90
20498;DHT22;10407;53.238;10.448;2023-04-12T03:12:32;5.50;99.90
20498;DHT22;10407;53.238;10.448;2023-04-12T03:14:59;5.60;99.90
20498;DHT22;10407;53.238;10.448;2023-04-12T03:17:27;5.60;99.90
20498;DHT22;10407;53.238;10.448;2023-04-12T03:19:54;5.50;99.90
20498;DHT22;10407;53.238;10.448;2023-04-12T03:22:23;5.60;99.90
20498;DHT22;10407;53.238;10.448;2023-04-12T03:24:51;5.70;99.90
20498;DHT22;10407;53.238;10.448;2023-04-12T03:27:19;5.80;99.90
20498;DHT22;10407;53.238;10.448;2023-04-12T03:29:47;5.80;99.90
20498;DHT22;10407;53.238;10.448;2023-04-12T03:32:14;5.70;99.90
20498;DHT22;10407;53.238;10.448;2023-04-12T03:34:42;5.60;99.90
20498;DHT22;10407;53.238;10.448;2023-04-12T03:37:11;5.60;99.90
20498;DHT22;10407;53.238;10.448;2023-04-12T03:39:38;5.50;99.90
20498;DHT22;10407;53.238;10.448;2023-04-12T03:42:06;5.40;99.90
20498;DHT22;10407;53.238;10.448;2023-04-12T03:44:34;5.50;99.90
20498;DHT22;10407;53.238;10.448;2023-04-12T03:47:01;5.60;99.90
20498;DHT22;10407;53.238;10.448;2023-04-12T03:49:29;5.70;99.90
20498;DHT22;10407;53.238;10.448;2023-04-12T03:51:56;5.60;99.90
20498;DHT22;10407;53.238;10.448;2023-04-12T03:54:24;5.70;99.90
20498;DHT22;10407;53.238;10.448;2023-04-12T03:56:52;5.70;99.90
20498;DHT22;10407;53.238;10.448;2023-04-12T03:59:19;5.70;99.90
20498;DHT22;10407;53.238;10.448;2023-04-12T04:01:47;5.50;99.90
20498;DHT22;10407;53.238;10.448;2023-04-12T04:04:14;5.60;99.90
20498;DHT22;10407;53.238;10.448;2023-04-12T04:06:42;5.50;99.90
20498;DHT22;10407;53.238;10.448;2023-04-12T04:09:09;5.60;99.90
20498;DHT22;10407;53.238;10.448;2023-04-12T04:11:37;5.70;99.90
20498;DHT22;10407;53.238;10.448;2023-04-12T04:14:04;5.50;99.90
20498;DHT22;10407;53.238;10.448;2023-04-12T04:16:32;5.70;99.90
20498;DHT22;10407;53.238;10.448;2023-04-12T04:19:00;5.70;99.90
20498;DHT22;10407;53.238;10.448;2023-04-12T04:21:27;5.80;99.90
20498;DHT22;10407;53.238;10.448;2023-04-12T04:23:58;5.90;99.90
20498;DHT22;10407;53.238;10.448;2023-04-12T04:26:28;5.80;99.90
20498;DHT22;10407;53.238;10.448;2023-04-12T04:29:00;5.80;99.90
20498;DHT22;10407;53.238;10.448;2023-04-12T04:31:28;5.80;99.90
20498;DHT22;10407;53.238;10.448;2023-04-12T04:33:58;5.90;99.90
20498;DHT22;10407;53.238;10.448;2023-04-12T04:36:25;6.00;99.90
20498;DHT22;10407;53.238;10.448;2023-04-12T04:38:53;5.90;99.90
20498;DHT22;10407;53.238;10.448;2023-04-12T04:41:20;5.70;99.90
20498;DHT22;10407;53.238;10.448;2023-04-12T04:43:50;5.80;99.90
20498;DHT22;10407;53.238;10.448;2023-04-12T04:46:17;5.90;99.90
20498;DHT22;10407;53.238;10.448;2023-04-12T04:48:50;5.90;99.90
20498;DHT22;10407;53.238;10.448;2023-04-12T04:51:20;6.10;99.90
20498;DHT22;10407;53.238;10.448;2023-04-12T04:53:48;6.10;99.90
20498;DHT22;10407;53.238;10.448;2023-04-12T04:56:15;6.40;99.90
20498;DHT22;10407;53.238;10.448;2023-04-12T04:58:43;6.30;99.90
20498;DHT22;10407;53.238;10.448;2023-04-12T05:01:11;6.40;99.90
20498;DHT22;10407;53.238;10.448;2023-04-12T05:03:38;6.60;99.90
20498;DHT22;10407;53.238;10.448;2023-04-12T05:06:07;6.60;99.90
20498;DHT22;10407;53.238;10.448;2023-04-12T05:08:35;6.60;99.90
20498;DHT22;10407;53.238;10.448;2023-04-12T05:11:03;6.70;99.90
20498;DHT22;10407;53.238;10.448;2023-04-12T05:13:30;7.30;99.90
20498;DHT22;10407;53.238;10.448;2023-04-12T05:15:58;8.10;99.90
20498;DHT22;10407;53.238;10.448;2023-04-12T05:18:25;8.50;99.90
20498;DHT22;10407;53.238;10.448;2023-04-12T05:20:53;9.40;99.90
20498;DHT22;10407;53.238;10.448;2023-04-12T05:23:20;9.00;99.90
20498;DHT22;10407;53.238;10.448;2023-04-12T05:25:48;9.10;99.90
20498;DHT22;10407;53.238;10.448;2023-04-12T05:28:16;9.60;96.40
20498;DHT22;10407;53.238;10.448;2023-04-12T05:30:44;10.50;94.00
20498;DHT22;10407;53.238;10.448;2023-04-12T05:33:12;10.50;94.60
20498;DHT22;10407;53.238;10.448;2023-04-12T05:35:39;10.70;92.30
20498;DHT22;10407;53.238;10.448;2023-04-12T05:38:07;11.80;86.20
20498;DHT22;10407;53.238;10.448;2023-04-12T05:40:35;12.30;76.90
20498;DHT22;10407;53.238;10.448;2023-04-12T05:43:02;12.00;74.70
20498;DHT22;10407;53.238;10.448;2023-04-12T05:45:30;12.10;74.30
20498;DHT22;10407;53.238;10.448;2023-04-12T05:47:57;11.90;74.10
20498;DHT22;10407;53.238;10.448;2023-04-12T05:50:25;12.10;76.30
20498;DHT22;10407;53.238;10.448;2023-04-12T05:52:53;12.50;69.90
20498;DHT22;10407;53.238;10.448;2023-04-12T05:55:21;12.60;61.90
20498;DHT22;10407;53.238;10.448;2023-04-12T05:57:48;13.00;61.10
20498;DHT22;10407;53.238;10.448;2023-04-12T06:00:17;13.50;58.70
20498;DHT22;10407;53.238;10.448;2023-04-12T06:02:46;13.30;58.60
20498;DHT22;10407;53.238;10.448;2023-04-12T06:05:15;13.00;57.00
20498;DHT22;10407;53.238;10.448;2023-04-12T06:07:43;13.10;59.30
20498;DHT22;10407;53.238;10.448;2023-04-12T06:10:15;12.60;59.10
20498;DHT22;10407;53.238;10.448;2023-04-12T06:12:43;12.40;62.40
20498;DHT22;10407;53.238;10.448;2023-04-12T06:15:11;12.50;61.20
20498;DHT22;10407;53.238;10.448;2023-04-12T06:17:38;12.40;58.90
20498;DHT22;10407;53.238;10.448;2023-04-12T06:20:06;12.90;62.00
20498;DHT22;10407;53.238;10.448;2023-04-12T06:22:35;12.40;64.30
20498;DHT22;10407;53.238;10.448;2023-04-12T06:25:04;11.60;71.20
20498;DHT22;10407;53.238;10.448;2023-04-12T06:27:31;10.70;82.30
20498;DHT22;10407;53.238;10.448;2023-04-12T06:29:59;10.50;91.30
20498;DHT22;10407;53.238;10.448;2023-04-12T06:32:26;10.30;90.00
20498;DHT22;10407;53.238;10.448;2023-04-12T06:34:54;10.60;91.40
20498;DHT22;10407;53.238;10.448;2023-04-12T06:37:21;10.10;91.80
20498;DHT22;10407;53.238;10.448;2023-04-12T06:39:49;10.40;91.50
20498;DHT22;10407;53.238;10.448;2023-04-12T06:42:18;10.70;91.80
20498;DHT22;10407;53.238;10.448;2023-04-12T06:44:45;10.40;91.10
20498;DHT22;10407;53.238;10.448;2023-04-12T06:47:13;11.00;91.30
20498;DHT22;10407;53.238;10.448;2023-04-12T06:49:41;11.10;90.70
20498;DHT22;10407;53.238;10.448;2023-04-12T06:52:08;10.80;90.60
20498;DHT22;10407;53.238;10.448;2023-04-12T06:54:36;10.70;91.50
20498;DHT22;10407;53.238;10.448;2023-04-12T06:57:10;11.30;89.60
20498;DHT22;10407;53.238;10.448;2023-04-12T06:59:35;11.10;86.60
20498;DHT22;10407;53.238;10.448;2023-04-12T07:02:02;10.70;89.00
20498;DHT22;10407;53.238;10.448;2023-04-12T07:04:30;11.10;89.70
20498;DHT22;10407;53.238;10.448;2023-04-12T07:06:57;11.70;84.90
20498;DHT22;10407;53.238;10.448;2023-04-12T07:09:25;11.80;80.50
20498;DHT22;10407;53.238;10.448;2023-04-12T07:11:52;11.50;83.90
20498;DHT22;10407;53.238;10.448;2023-04-12T07:14:20;11.20;82.90
20498;DHT22;10407;53.238;10.448;2023-04-12T07:16:47;11.60;83.00
20498;DHT22;10407;53.238;10.448;2023-04-12T07:19:15;12.10;83.50
20498;DHT22;10407;53.238;10.448;2023-04-12T07:21:42;12.10;77.50
20498;DHT22;10407;53.238;10.448;2023-04-12T07:24:10;12.40;75.80
20498;DHT22;10407;53.238;10.448;2023-04-12T07:26:37;13.00;78.40
20498;DHT22;10407;53.238;10.448;2023-04-12T07:29:05;13.10;70.20
20498;DHT22;10407;53.238;10.448;2023-04-12T07:31:32;12.60;69.30
20498;DHT22;10407;53.238;10.448;2023-04-12T07:34:01;12.40;73.70
20498;DHT22;10407;53.238;10.448;2023-04-12T07:36:28;11.60;78.40
20498;DHT22;10407;53.238;10.448;2023-04-12T07:38:56;11.00;85.70
20498;DHT22;10407;53.238;10.448;2023-04-12T07:41:24;10.90;88.00
20498;DHT22;10407;53.238;10.448;2023-04-12T07:43:52;10.70;87.00
20498;DHT22;10407;53.238;10.448;2023-04-12T07:46:20;10.70;91.90
20498;DHT22;10407;53.238;10.448;2023-04-12T07:48:47;10.50;89.00
20498;DHT22;10407;53.238;10.448;2023-04-12T07:51:15;10.80;91.80
20498;DHT22;10407;53.238;10.448;2023-04-12T07:53:43;10.80;91.70
20498;DHT22;10407;53.238;10.448;2023-04-12T07:56:12;10.60;92.70
20498;DHT22;10407;53.238;10.448;2023-04-12T07:58:40;10.50;91.30
20498;DHT22;10407;53.238;10.448;2023-04-12T08:01:07;10.60;92.00
20498;DHT22;10407;53.238;10.448;2023-04-12T08:03:35;10.50;92.10
20498;DHT22;10407;53.238;10.448;2023-04-12T08:06:03;10.70;92.10
20498;DHT22;10407;53.238;10.448;2023-04-12T08:08:30;10.60;92.90
20498;DHT22;10407;53.238;10.448;2023-04-12T08:10:58;10.40;92.80
20498;DHT22;10407;53.238;10.448;2023-04-12T08:13:27;10.50;93.10
20498;DHT22;10407;53.238;10.448;2023-04-12T08:15:55;10.50;93.20
20498;DHT22;10407;53.238;10.448;2023-04-12T08:18:22;10.50;94.20
20498;DHT22;10407;53.238;10.448;2023-04-12T08:20:50;10.30;96.40
20498;DHT22;10407;53.238;10.448;2023-04-12T08:23:18;10.30;95.10
20498;DHT22;10407;53.238;10.448;2023-04-12T08:25:45;10.30;94.90
20498;DHT22;10407;53.238;10.448;2023-04-12T08:28:13;10.40;94.90
20498;DHT22;10407;53.238;10.448;2023-04-12T08:30:42;10.50;96.20
20498;DHT22;10407;53.238;10.448;2023-04-12T08:33:09;10.50;95.00
20498;DHT22;10407;53.238;10.448;2023-04-12T08:35:37;10.60;96.60
20498;DHT22;10407;53.238;10.448;2023-04-12T08:38:05;10.50;96.90
20498;DHT22;10407;53.238;10.448;2023-04-12T08:40:33;10.60;96.90
20498;DHT22;10407;53.238;10.448;2023-04-12T08:43:05;10.50;96.30
20498;DHT22;10407;53.238;10.448;2023-04-12T08:45:34;10.30;96.30
20498;DHT22;10407;53.238;10.448;2023-04-12T08:48:03;10.40;97.80
20498;DHT22;10407;53.238;10.448;2023-04-12T08:50:32;10.50;98.90
20498;DHT22;10407;53.238;10.448;2023-04-12T08:52:59;10.30;99.80
20498;DHT22;10407;53.238;10.448;2023-04-12T08:55:27;10.30;99.50
20498;DHT22;10407;53.238;10.448;2023-04-12T08:57:55;10.30;99.90
20498;DHT22;10407;53.238;10.448;2023-04-12T09:00:22;10.30;99.80
20498;DHT22;10407;53.238;10.448;2023-04-12T09:02:51;10.30;99.00
20498;DHT22;10407;53.238;10.448;2023-04-12T09:05:18;10.30;99.60
20498;DHT22;10407;53.238;10.448;2023-04-12T09:07:47;10.40;98.70
20498;DHT22;10407;53.238;10.448;2023-04-12T09:10:36;10.50;98.60
20498;DHT22;10407;53.238;10.448;2023-04-12T09:13:04;10.50;99.40
20498;DHT22;10407;53.238;10.448;2023-04-12T09:15:33;10.50;99.90
20498;DHT22;10407;53.238;10.448;2023-04-12T09:18:11;10.50;99.70
20498;DHT22;10407;53.238;10.448;2023-04-12T09:20:39;10.40;99.90
20498;DHT22;10407;53.238;10.448;2023-04-12T09:23:20;10.50;99.90
20498;DHT22;10407;53.238;10.448;2023-04-12T09:25:49;10.50;99.60
20498;DHT22;10407;53.238;10.448;2023-04-12T09:28:20;10.70;99.80
20498;DHT22;10407;53.238;10.448;2023-04-12T09:30:48;10.80;99.60
20498;DHT22;10407;53.238;10.448;2023-04-12T09:33:18;10.90;99.10
20498;DHT22;10407;53.238;10.448;2023-04-12T09:35:47;11.00;98.60
20498;DHT22;10407;53.238;10.448;2023-04-12T09:38:14;11.30;97.10
20498;DHT22;10407;53.238;10.448;2023-04-12T09:40:42;11.50;95.40
20498;DHT22;10407;53.238;10.448;2023-04-12T09:43:10;11.70;95.60
20498;DHT22;10407;53.238;10.448;2023-04-12T09:45:38;11.60;95.20
20498;DHT22;10407;53.238;10.448;2023-04-12T09:48:06;11.50;94.30
20498;DHT22;10407;53.238;10.448;2023-04-12T09:50:34;11.50;96.50
20498;DHT22;10407;53.238;10.448;2023-04-12T09:53:03;11.70;93.30
20498;DHT22;10407;53.238;10.448;2023-04-12T09:55:32;11.80;94.20
20498;DHT22;10407;53.238;10.448;2023-04-12T09:58:03;11.90;94.50
20498;DHT22;10407;53.238;10.448;2023-04-12T10:00:31;11.70;94.20
20498;DHT22;10407;53.238;10.448;2023-04-12T10:02:59;11.80;94.80
20498;DHT22;10407;53.238;10.448;2023-04-12T10:05:27;11.70;93.80
20498;DHT22;10407;53.238;10.448;2023-04-12T10:07:55;11.90;94.80
20498;DHT22;10407;53.238;10.448;2023-04-12T10:10:23;11.90;95.30
20498;DHT22;10407;53.238;10.448;2023-04-12T10:12:51;11.60;94.30
20498;DHT22;10407;53.238;10.448;2023-04-12T10:15:19;11.70;94.60
20498;DHT22;10407;53.238;10.448;2023-04-12T10:17:53;11.70;95.00
20498;DHT22;10407;53.238;10.448;2023-04-12T10:20:22;11.70;95.80
20498;DHT22;10407;53.238;10.448;2023-04-12T10:22:51;11.80;96.30
20498;DHT22;10407;53.238;10.448;2023-04-12T10:25:21;11.60;96.90
20498;DHT22;10407;53.238;10.448;2023-04-12T10:27:49;11.70;98.00
20498;DHT22;10407;53.238;10.448;2023-04-12T10:30:21;11.70;97.50
20498;DHT22;10407;53.238;10.448;2023-04-12T10:38:18;11.50;96.80
20498;DHT22;10407;53.238;10.448;2023-04-12T10:41:09;11.40;98.10
20498;DHT22;10407;53.238;10.448;2023-04-12T10:43:35;11.50;98.60
20498;DHT22;10407;53.238;10.448;2023-04-12T10:46:03;11.40;99.00
20498;DHT22;10407;53.238;10.448;2023-04-12T10:48:37;11.40;99.30
20498;DHT22;10407;53.238;10.448;2023-04-12T10:51:14;11.40;99.90
20498;DHT22;10407;53.238;10.448;2023-04-12T10:53:41;11.40;99.90
20498;DHT22;10407;53.238;10.448;2023-04-12T10:58:59;11.40;99.90
20498;DHT22;10407;53.238;10.448;2023-04-12T11:01:28;11.40;99.90
20498;DHT22;10407;53.238;10.448;2023-04-12T11:06:59;11.40;99.90
20498;DHT22;10407;53.238;10.448;2023-04-12T11:14:47;11.20;99.90
20498;DHT22;10407;53.238;10.448;2023-04-12T11:19:50;10.90;99.90
20498;DHT22;10407;53.238;10.448;2023-04-12T11:22:20;10.80;99.90
20498;DHT22;10407;53.238;10.448;2023-04-12T11:24:51;10.80;99.90
20498;DHT22;10407;53.238;10.448;2023-04-12T11:27:21;10.90;99.90
20498;DHT22;10407;53.238;10.448;2023-04-12T11:29:54;10.70;99.90
20498;DHT22;10407;53.238;10.448;2023-04-12T11:32:24;10.60;99.90
20498;DHT22;10407;53.238;10.448;2023-04-12T11:34:54;10.60;99.90
20498;DHT22;10407;53.238;10.448;2023-04-12T11:37:23;10.60;99.90
20498;DHT22;10407;53.238;10.448;2023-04-12T11:39:54;10.60;99.90
20498;DHT22;10407;53.238;10.448;2023-04-12T11:42:26;10.40;99.90
20498;DHT22;10407;53.238;10.448;2023-04-12T11:44:54;10.40;99.90
20498;DHT22;10407;53.238;10.448;2023-04-12T11:47:23;10.10;99.90
20498;DHT22;10407;53.238;10.448;2023-04-12T11:49:55;10.30;99.90
20498;DHT22;10407;53.238;10.448;2023-04-12T11:52:30;10.30;99.90
20498;DHT22;10407;53.238;10.448;2023-04-12T11:55:05;10.30;99.90
20498;DHT22;10407;53.238;10.448;2023-04-12T11:57:34;10.50;99.90
20498;DHT22;10407;53.238;10.448;2023-04-12T12:00:02;10.50;99.90
20498;DHT22;10407;53.238;10.448;2023-04-12T12:02:32;10.50;99.90
20498;DHT22;10407;53.238;10.448;2023-04-12T12:05:05;10.40;99.90
20498;DHT22;10407;53.238;10.448;2023-04-12T12:07:33;10.40;99.90
20498;DHT22;10407;53.238;10.448;2023-04-12T12:10:01;10.30;99.90
20498;DHT22;10407;53.238;10.448;2023-04-12T12:12:30;10.20;99.90
20498;DHT22;10407;53.238;10.448;2023-04-12T12:14:59;10.20;99.90
20498;DHT22;10407;53.238;10.448;2023-04-12T12:17:28;10.20;99.90
20498;DHT22;10407;53.238;10.448;2023-04-12T12:19:57;10.30;99.90
20498;DHT22;10407;53.238;10.448;2023-04-12T12:22:25;10.30;99.90
20498;DHT22;10407;53.238;10.448;2023-04-12T12:24:57;10.30;99.90
20498;DHT22;10407;53.238;10.448;2023-04-12T12:30:00;10.20;99.90
20498;DHT22;10407;53.238;10.448;2023-04-12T12:32:33;10.20;99.90
20498;DHT22;10407;53.238;10.448;2023-04-12T12:35:06;10.10;99.90
20498;DHT22;10407;53.238;10.448;2023-04-12T12:37:31;10.10;99.90
20498;DHT22;10407;53.238;10.448;2023-04-12T12:42:50;10.10;99.90
20498;DHT22;10407;53.238;10.448;2023-04-12T12:45:21;10.00;99.90
20498;DHT22;10407;53.238;10.448;2023-04-12T12:47:52;10.10;99.90
20498;DHT22;10407;53.238;10.448;2023-04-12T12:50:22;10.10;99.90
20498;DHT22;10407;53.238;10.448;2023-04-12T12:52:51;10.10;99.90
20498;DHT22;10407;53.238;10.448;2023-04-12T12:55:19;10.10;99.90
20498;DHT22;10407;53.238;10.448;2023-04-12T12:57:50;10.00;99.90
20498;DHT22;10407;53.238;10.448;2023-04-12T13:00:18;10.00;99.90
20498;DHT22;10407;53.238;10.448;2023-04-12T13:02:46;9.80;99.90
20498;DHT22;10407;53.238;10.448;2023-04-12T13:05:14;9.80;99.90
20498;DHT22;10407;53.238;10.448;2023-04-12T13:07:41;9.80;99.90
20498;DHT22;10407;53.238;10.448;2023-04-12T13:10:09;9.90;99.90
20498;DHT22;10407;53.238;10.448;2023-04-12T13:12:37;9.70;99.90
20498;DHT22;10407;53.238;10.448;2023-04-12T13:15:05;9.90;99.90
20498;DHT22;10407;53.238;10.448;2023-04-12T13:17:33;9.80;99.90
20498;DHT22;10407;53.238;10.448;2023-04-12T13:20:01;9.90;99.90
20498;DHT22;10407;53.238;10.448;2023-04-12T13:22:29;10.10;99.90
20498;DHT22;10407;53.238;10.448;2023-04-12T13:24:57;10.00;99.90
20498;DHT22;10407;53.238;10.448;2023-04-12T13:27:25;9.80;99.90
20498;DHT22;10407;53.238;10.448;2023-04-12T13:29:53;9.90;99.90
20498;DHT22;10407;53.238;10.448;2023-04-12T13:32:20;10.10;99.90
20498;DHT22;10407;53.238;10.448;2023-04-12T13:34:48;9.90;99.90
20498;DHT22;10407;53.238;10.448;2023-04-12T13:37:15;9.90;99.90
20498;DHT22;10407;53.238;10.448;2023-04-12T13:39:43;10.10;99.90
20498;DHT22;10407;53.238;10.448;2023-04-12T13:42:11;10.10;99.90
20498;DHT22;10407;53.238;10.448;2023-04-12T13:44:38;10.10;99.90
20498;DHT22;10407;53.238;10.448;2023-04-12T13:47:06;10.20;99.90
20498;DHT22;10407;53.238;10.448;2023-04-12T13:49:33;10.20;99.90
20498;DHT22;10407;53.238;10.448;2023-04-12T13:52:01;10.30;99.90
20498;DHT22;10407;53.238;10.448;2023-04-12T13:54:29;10.20;99.90
20498;DHT22;10407;53.238;10.448;2023-04-12T13:56:57;10.10;99.90
20498;DHT22;10407;53.238;10.448;2023-04-12T13:59:25;10.10;99.90
20498;DHT22;10407;53.238;10.448;2023-04-12T14:01:53;10.00;99.90
20498;DHT22;10407;53.238;10.448;2023-04-12T14:04:21;10.00;99.90
20498;DHT22;10407;53.238;10.448;2023-04-12T14:06:48;10.00;99.90
20498;DHT22;10407;53.238;10.448;2023-04-12T14:09:30;10.10;99.90
20498;DHT22;10407;53.238;10.448;2023-04-12T14:11:59;10.00;99.90
20498;DHT22;10407;53.238;10.448;2023-04-12T14:14:27;10.00;99.90
20498;DHT22;10407;53.238;10.448;2023-04-12T14:16:55;10.00;99.90
20498;DHT22;10407;53.238;10.448;2023-04-12T14:19:23;9.80;99.90
20498;DHT22;10407;53.238;10.448;2023-04-12T14:21:51;9.90;99.90
20498;DHT22;10407;53.238;10.448;2023-04-12T14:24:20;9.80;99.90
20498;DHT22;10407;53.238;10.448;2023-04-12T14:26:48;9.70;99.90
20498;DHT22;10407;53.238;10.448;2023-04-12T14:29:18;9.70;99.90
20498;DHT22;10407;53.238;10.448;2023-04-12T14:31:46;9.70;99.90
20498;DHT22;10407;53.238;10.448;2023-04-12T14:34:14;9.60;99.90
20498;DHT22;10407;53.238;10.448;2023-04-12T14:36:41;9.70;99.90
20498;DHT22;10407;53.238;10.448;2023-04-12T14:39:09;9.60;99.90
20498;DHT22;10407;53.238;10.448;2023-04-12T14:41:37;9.60;99.90
20498;DHT22;10407;53.238;10.448;2023-04-12T14:44:05;9.60;99.90
20498;DHT22;10407;53.238;10.448;2023-04-12T14:46:32;9.70;99.90
20498;DHT22;10407;53.238;10.448;2023-04-12T14:49:00;9.60;99.90
20498;DHT22;10407;53.238;10.448;2023-04-12T14:51:28;9.70;99.90
20498;DHT22;10407;53.238;10.448;2023-04-12T14:53:55;9.70;99.90
20498;DHT22;10407;53.238;10.448;2023-04-12T14:56:24;9.50;99.90
20498;DHT22;10407;53.238;10.448;2023-04-12T14:58:54;9.80;99.90
20498;DHT22;10407;53.238;10.448;2023-04-12T15:01:22;9.90;99.90
20498;DHT22;10407;53.238;10.448;2023-04-12T15:03:51;9.80;99.90
20498;DHT22;10407;53.238;10.448;2023-04-12T15:06:20;9.80;99.90
20498;DHT22;10407;53.238;10.448;2023-04-12T15:08:49;9.70;99.90
20498;DHT22;10407;53.238;10.448;2023-04-12T15:11:19;9.80;99.90
20498;DHT22;10407;53.238;10.448;2023-04-12T15:13:48;9.80;99.90
20498;DHT22;10407;53.238;10.448;2023-04-12T15:16:15;9.80;99.90
20498;DHT22;10407;53.238;10.448;2023-04-12T15:18:43;9.80;99.90
20498;DHT22;10407;53.238;10.448;2023-04-12T15:21:11;9.80;99.90
20498;DHT22;10407;53.238;10.448;2023-04-12T15:23:39;9.60;99.90
20498;DHT22;10407;53.238;10.448;2023-04-12T15:26:07;9.70;99.90
20498;DHT22;10407;53.238;10.448;2023-04-12T15:28:36;9.80;99.90
20498;DHT22;10407;53.238;10.448;2023-04-12T15:31:04;9.70;99.90
20498;DHT22;10407;53.238;10.448;2023-04-12T15:33:31;9.80;99.90
20498;DHT22;10407;53.238;10.448;2023-04-12T15:36:03;9.90;99.90
20498;DHT22;10407;53.238;10.448;2023-04-12T15:38:31;10.10;99.90
20498;DHT22;10407;53.238;10.448;2023-04-12T15:41:07;10.10;99.90
20498;DHT22;10407;53.238;10.448;2023-04-12T15:43:30;10.00;99.90
20498;DHT22;10407;53.238;10.448;2023-04-12T15:45:58;9.90;99.90
20498;DHT22;10407;53.238;10.448;2023-04-12T15:48:26;10.00;99.90
20498;DHT22;10407;53.238;10.448;2023-04-12T15:50:55;9.90;99.90
20498;DHT22;10407;53.238;10.448;2023-04-12T15:53:24;10.00;99.90
20498;DHT22;10407;53.238;10.448;2023-04-12T15:55:52;9.80;99.90
20498;DHT22;10407;53.238;10.448;2023-04-12T15:58:22;9.80;99.90
20498;DHT22;10407;53.238;10.448;2023-04-12T16:00:50;9.80;99.90
20498;DHT22;10407;53.238;10.448;2023-04-12T16:03:20;9.50;99.90
20498;DHT22;10407;53.238;10.448;2023-04-12T16:05:48;9.50;99.90
20498;DHT22;10407;53.238;10.448;2023-04-12T16:08:21;9.60;99.90
20498;DHT22;10407;53.238;10.448;2023-04-12T16:10:49;9.60;99.90